sensor_id;sensor_type;location;lat;lon;timestamp;pressure;altitude;pressure_sealevel;temperature;humidity
22181;BME280;11256;50.830;12.834;2024-01-30T00:03:13;98955.00;;;5.90;54.86
22181;BME280;11256;50.830;12.834;2024-01-30T00:08:14;98947.66;;;5.72;55.05
22181;BME280;11256;50.830;12.834;2024-01-30T00:13:14;98962.97;;;5.72;55.26
22181;BME280;11256;50.830;12.834;2024-01-30T00:18:16;98960.53;;;5.64;54.78
22181;BME280;11256;50.830;12.834;2024-01-30T00:23:16;98963.06;;;5.59;55.36
22181;BME280;11256;50.830;12.834;2024-01-30T00:28:17;98972.19;;;5.51;55.52
22181;BME280;11256;50.830;12.834;2024-01-30T00:33:17;98976.38;;;5.47;55.97
22181;BME280;11256;50.830;12.834;2024-01-30T00:38:17;98968.13;;;5.42;55.33
22181;BME280;11256;50.830;12.834;2024-01-30T00:43:18;98957.84;;;5.33;55.66
22181;BME280;11256;50.830;12.834;2024-01-30T00:48:18;98947.34;;;5.25;55.58
22181;BME280;11256;50.830;12.834;2024-01-30T00:53:19;98958.97;;;5.19;55.82
22181;BME280;11256;50.830;12.834;2024-01-30T00:58:19;98956.69;;;5.16;55.81
22181;BME280;11256;50.830;12.834;2024-01-30T01:03:19;98946.03;;;5.03;55.99
22181;BME280;11256;50.830;12.834;2024-01-30T01:08:20;98949.31;;;5.05;56.10
22181;BME280;11256;50.830;12.834;2024-01-30T01:13:20;98948.94;;;4.95;56.21
22181;BME280;11256;50.830;12.834;2024-01-30T01:18:20;98951.03;;;4.93;56.28
22181;BME280;11256;50.830;12.834;2024-01-30T01:23:21;98949.00;;;4.88;56.15
22181;BME280;11256;50.830;12.834;2024-01-30T01:28:21;98936.63;;;4.81;56.45
22181;BME280;11256;50.830;12.834;2024-01-30T01:33:21;98942.22;;;4.79;56.51
22181;BME280;11256;50.830;12.834;2024-01-30T01:38:22;98946.13;;;4.77;56.32
22181;BME280;11256;50.830;12.834;2024-01-30T01:43:22;98911.91;;;4.59;56.24
22181;BME280;11256;50.830;12.834;2024-01-30T01:48:22;98920.22;;;4.58;56.21
22181;BME280;11256;50.830;12.834;2024-01-30T01:53:23;98936.06;;;4.66;56.40
22181;BME280;11256;50.830;12.834;2024-01-30T01:58:26;98932.97;;;4.62;56.37
22181;BME280;11256;50.830;12.834;2024-01-30T02:03:30;98922.25;;;4.56;56.22
22181;BME280;11256;50.830;12.834;2024-01-30T02:08:30;98929.72;;;4.47;56.59
22181;BME280;11256;50.830;12.834;2024-01-30T02:13:31;98912.44;;;4.37;56.78
22181;BME280;11256;50.830;12.834;2024-01-30T02:18:31;98928.09;;;4.40;56.95
22181;BME280;11256;50.830;12.834;2024-01-30T02:23:32;98929.75;;;4.34;56.96
22181;BME280;11256;50.830;12.834;2024-01-30T02:28:33;98929.78;;;4.28;57.18
22181;BME280;11256;50.830;12.834;2024-01-30T02:33:33;98929.38;;;4.24;57.14
22181;BME280;11256;50.830;12.834;2024-01-30T02:38:34;98923.59;;;4.21;56.97
22181;BME280;11256;50.830;12.834;2024-01-30T02:43:34;98926.91;;;4.16;57.16
22181;BME280;11256;50.830;12.834;2024-01-30T02:48:34;98921.56;;;4.10;56.96
22181;BME280;11256;50.830;12.834;2024-01-30T02:53:35;98922.59;;;4.09;57.20
22181;BME280;11256;50.830;12.834;2024-01-30T02:58:36;98924.84;;;4.05;57.41
22181;BME280;11256;50.830;12.834;2024-01-30T03:03:37;98914.16;;;3.99;57.28
22181;BME280;11256;50.830;12.834;2024-01-30T03:08:37;98909.63;;;3.93;57.43
22181;BME280;11256;50.830;12.834;2024-01-30T03:13:37;98909.44;;;3.88;57.37
22181;BME280;11256;50.830;12.834;2024-01-30T03:18:38;98911.69;;;3.84;57.24
22181;BME280;11256;50.830;12.834;2024-01-30T03:23:38;98905.50;;;3.77;57.78
22181;BME280;11256;50.830;12.834;2024-01-30T03:28:38;98916.66;;;3.74;57.83
22181;BME280;11256;50.830;12.834;2024-01-30T03:33:39;98912.72;;;3.70;57.91
22181;BME280;11256;50.830;12.834;2024-01-30T03:38:39;98908.00;;;3.66;57.82
22181;BME280;11256;50.830;12.834;2024-01-30T03:43:40;98906.34;;;3.58;58.15
22181;BME280;11256;50.830;12.834;2024-01-30T03:48:40;98903.88;;;3.57;58.27
22181;BME280;11256;50.830;12.834;2024-01-30T03:53:43;98888.81;;;3.43;58.47
22181;BME280;11256;50.830;12.834;2024-01-30T03:58:45;98900.16;;;3.45;58.30
22181;BME280;11256;50.830;12.834;2024-01-30T04:03:45;98893.56;;;3.41;58.09
22181;BME280;11256;50.830;12.834;2024-01-30T04:08:46;98866.75;;;3.21;58.42
22181;BME280;11256;50.830;12.834;2024-01-30T04:13:46;98886.56;;;3.27;58.62
22181;BME280;11256;50.830;12.834;2024-01-30T04:18:48;98885.09;;;3.31;58.74
22181;BME280;11256;50.830;12.834;2024-01-30T04:23:50;98886.56;;;3.27;58.63
22181;BME280;11256;50.830;12.834;2024-01-30T04:28:51;98893.94;;;3.25;58.72
22181;BME280;11256;50.830;12.834;2024-01-30T04:33:52;98875.81;;;3.14;58.50
22181;BME280;11256;50.830;12.834;2024-01-30T04:38:52;98874.16;;;3.13;58.47
22181;BME280;11256;50.830;12.834;2024-01-30T04:43:52;98872.91;;;3.09;58.90
22181;BME280;11256;50.830;12.834;2024-01-30T04:48:53;98876.22;;;3.11;58.78
22181;BME280;11256;50.830;12.834;2024-01-30T04:53:53;98877.66;;;3.07;58.73
22181;BME280;11256;50.830;12.834;2024-01-30T04:58:53;98869.59;;;3.00;58.98
22181;BME280;11256;50.830;12.834;2024-01-30T05:03:54;98863.00;;;2.90;59.11
22181;BME280;11256;50.830;12.834;2024-01-30T05:08:54;98871.25;;;2.95;59.40
22181;BME280;11256;50.830;12.834;2024-01-30T05:13:54;98872.50;;;2.92;59.39
22181;BME280;11256;50.830;12.834;2024-01-30T05:18:55;98872.06;;;2.89;59.14
22181;BME280;11256;50.830;12.834;2024-01-30T05:23:55;98878.22;;;2.83;59.31
22181;BME280;11256;50.830;12.834;2024-01-30T05:28:56;98840.28;;;2.60;59.30
22181;BME280;11256;50.830;12.834;2024-01-30T05:33:57;98874.91;;;2.81;59.55
22181;BME280;11256;50.830;12.834;2024-01-30T05:38:57;98868.72;;;2.74;59.45
22181;BME280;11256;50.830;12.834;2024-01-30T05:43:57;98876.34;;;2.77;59.37
22181;BME280;11256;50.830;12.834;2024-01-30T05:48:58;98878.78;;;2.72;59.17
22181;BME280;11256;50.830;12.834;2024-01-30T05:53:58;98867.66;;;2.62;59.38
22181;BME280;11256;50.830;12.834;2024-01-30T05:58:59;98876.50;;;2.62;59.40
22181;BME280;11256;50.830;12.834;2024-01-30T06:03:59;98890.72;;;2.63;59.42
22181;BME280;11256;50.830;12.834;2024-01-30T06:08:59;98897.28;;;2.60;59.56
22181;BME280;11256;50.830;12.834;2024-01-30T06:14:00;98892.94;;;2.53;59.07
22181;BME280;11256;50.830;12.834;2024-01-30T06:19:00;98890.66;;;2.50;59.29
22181;BME280;11256;50.830;12.834;2024-01-30T06:24:01;98883.66;;;2.49;59.61
22181;BME280;11256;50.830;12.834;2024-01-30T06:29:01;98886.34;;;2.49;59.73
22181;BME280;11256;50.830;12.834;2024-01-30T06:34:01;98885.06;;;2.45;59.36
22181;BME280;11256;50.830;12.834;2024-01-30T06:39:02;98888.53;;;2.39;59.95
22181;BME280;11256;50.830;12.834;2024-01-30T06:44:03;98887.56;;;2.40;59.44
22181;BME280;11256;50.830;12.834;2024-01-30T06:49:08;98887.56;;;2.40;59.52
22181;BME280;11256;50.830;12.834;2024-01-30T06:54:08;98900.28;;;2.38;59.55
22181;BME280;11256;50.830;12.834;2024-01-30T06:59:09;98896.97;;;2.36;59.79
22181;BME280;11256;50.830;12.834;2024-01-30T07:04:10;98898.63;;;2.37;60.38
22181;BME280;11256;50.830;12.834;2024-01-30T07:09:10;98899.25;;;2.39;59.88
22181;BME280;11256;50.830;12.834;2024-01-30T07:14:11;98903.22;;;2.49;59.86
22181;BME280;11256;50.830;12.834;2024-01-30T07:19:11;98903.72;;;2.72;60.12
22181;BME280;11256;50.830;12.834;2024-01-30T07:24:11;98919.84;;;2.98;59.83
22181;BME280;11256;50.830;12.834;2024-01-30T07:29:12;98904.66;;;3.25;61.11
22181;BME280;11256;50.830;12.834;2024-01-30T07:34:13;98909.22;;;3.44;60.65
22181;BME280;11256;50.830;12.834;2024-01-30T07:39:13;98919.09;;;3.56;60.20
22181;BME280;11256;50.830;12.834;2024-01-30T07:44:13;98923.66;;;3.69;60.50
22181;BME280;11256;50.830;12.834;2024-01-30T07:49:14;98905.09;;;3.74;61.29
22181;BME280;11256;50.830;12.834;2024-01-30T07:54:14;98896.22;;;3.93;61.20
22181;BME280;11256;50.830;12.834;2024-01-30T07:59:15;98914.66;;;4.40;62.23
22181;BME280;11256;50.830;12.834;2024-01-30T08:04:15;98907.69;;;4.83;62.38
22181;BME280;11256;50.830;12.834;2024-01-30T08:09:15;98918.66;;;5.19;61.68
22181;BME280;11256;50.830;12.834;2024-01-30T08:14:16;98911.41;;;5.50;61.88
22181;BME280;11256;50.830;12.834;2024-01-30T08:19:16;98894.94;;;5.96;61.94
22181;BME280;11256;50.830;12.834;2024-01-30T08:24:16;98919.84;;;6.70;60.96
22181;BME280;11256;50.830;12.834;2024-01-30T08:29:17;98900.19;;;6.99;60.55
22181;BME280;11256;50.830;12.834;2024-01-30T08:34:17;98892.44;;;7.32;59.23
22181;BME280;11256;50.830;12.834;2024-01-30T08:39:17;98903.13;;;7.91;58.85
22181;BME280;11256;50.830;12.834;2024-01-30T08:44:18;98891.66;;;8.30;58.69
22181;BME280;11256;50.830;12.834;2024-01-30T08:49:19;98902.72;;;9.19;57.85
22181;BME280;11256;50.830;12.834;2024-01-30T08:54:20;98908.38;;;9.62;56.64
22181;BME280;11256;50.830;12.834;2024-01-30T08:59:20;98897.59;;;9.78;54.57
22181;BME280;11256;50.830;12.834;2024-01-30T09:04:21;98903.81;;;10.28;53.77
22181;BME280;11256;50.830;12.834;2024-01-30T09:09:21;98891.97;;;11.42;53.77
22181;BME280;11256;50.830;12.834;2024-01-30T09:14:22;98887.09;;;12.38;52.20
22181;BME280;11256;50.830;12.834;2024-01-30T09:19:22;98872.03;;;13.24;50.02
22181;BME280;11256;50.830;12.834;2024-01-30T09:24:23;98892.28;;;14.13;47.70
22181;BME280;11256;50.830;12.834;2024-01-30T09:29:23;98902.56;;;14.76;47.69
22181;BME280;11256;50.830;12.834;2024-01-30T09:34:23;98893.16;;;15.12;46.06
22181;BME280;11256;50.830;12.834;2024-01-30T09:39:23;98897.63;;;14.93;44.79
22181;BME280;11256;50.830;12.834;2024-01-30T09:44:25;98898.22;;;14.70;44.49
22181;BME280;11256;50.830;12.834;2024-01-30T09:49:28;98876.50;;;14.35;44.67
22181;BME280;11256;50.830;12.834;2024-01-30T09:54:30;98881.94;;;13.95;43.74
22181;BME280;11256;50.830;12.834;2024-01-30T09:59:31;98873.75;;;13.65;44.26
22181;BME280;11256;50.830;12.834;2024-01-30T10:04:32;98891.69;;;13.41;45.06
22181;BME280;11256;50.830;12.834;2024-01-30T10:09:32;98879.59;;;13.02;45.12
22181;BME280;11256;50.830;12.834;2024-01-30T10:14:40;98876.94;;;12.70;45.41
22181;BME280;11256;50.830;12.834;2024-01-30T10:19:41;98872.22;;;12.51;45.68
22181;BME280;11256;50.830;12.834;2024-01-30T10:24:42;98859.84;;;12.23;46.02
22181;BME280;11256;50.830;12.834;2024-01-30T10:29:43;98850.75;;;12.08;46.53
22181;BME280;11256;50.830;12.834;2024-01-30T10:34:43;98856.16;;;12.03;47.26
22181;BME280;11256;50.830;12.834;2024-01-30T10:39:45;98853.66;;;11.96;47.14
22181;BME280;11256;50.830;12.834;2024-01-30T10:45:06;98839.22;;;11.91;47.33
22181;BME280;11256;50.830;12.834;2024-01-30T10:50:08;98827.22;;;11.87;47.91
22181;BME280;11256;50.830;12.834;2024-01-30T10:55:10;98838.22;;;12.02;48.39
22181;BME280;11256;50.830;12.834;2024-01-30T11:00:13;98836.84;;;11.99;49.01
22181;BME280;11256;50.830;12.834;2024-01-30T11:05:23;98829.81;;;12.03;49.51
22181;BME280;11256;50.830;12.834;2024-01-30T11:10:25;98829.84;;;12.08;49.75
22181;BME280;11256;50.830;12.834;2024-01-30T11:15:25;98830.66;;;12.09;50.24
22181;BME280;11256;50.830;12.834;2024-01-30T11:20:30;98813.00;;;12.11;50.11
22181;BME280;11256;50.830;12.834;2024-01-30T11:25:35;98821.25;;;12.26;51.09
22181;BME280;11256;50.830;12.834;2024-01-30T11:30:36;98821.03;;;12.33;51.44
22181;BME280;11256;50.830;12.834;2024-01-30T11:35:41;98820.50;;;12.41;51.36
22181;BME280;11256;50.830;12.834;2024-01-30T11:40:43;98817.03;;;12.45;51.78
22181;BME280;11256;50.830;12.834;2024-01-30T11:45:43;98797.72;;;12.52;51.48
22181;BME280;11256;50.830;12.834;2024-01-30T11:50:45;98804.31;;;12.66;51.17
22181;BME280;11256;50.830;12.834;2024-01-30T11:55:51;98788.56;;;12.73;51.98
22181;BME280;11256;50.830;12.834;2024-01-30T12:00:55;98805.47;;;12.85;51.95
22181;BME280;11256;50.830;12.834;2024-01-30T12:05:56;98807.16;;;12.96;52.46
22181;BME280;11256;50.830;12.834;2024-01-30T12:11:00;98802.31;;;13.08;52.56
22181;BME280;11256;50.830;12.834;2024-01-30T12:16:06;98805.06;;;13.13;53.09
22181;BME280;11256;50.830;12.834;2024-01-30T12:21:06;98800.44;;;13.23;52.95
22181;BME280;11256;50.830;12.834;2024-01-30T12:26:09;98794.19;;;13.33;52.89
22181;BME280;11256;50.830;12.834;2024-01-30T12:31:10;98795.81;;;13.44;52.84
22181;BME280;11256;50.830;12.834;2024-01-30T12:36:11;98801.53;;;13.47;52.70
22181;BME280;11256;50.830;12.834;2024-01-30T12:41:11;98788.75;;;13.53;53.00
22181;BME280;11256;50.830;12.834;2024-01-30T12:46:12;98789.56;;;13.63;52.63
22181;BME280;11256;50.830;12.834;2024-01-30T12:51:12;98789.81;;;13.67;52.45
22181;BME280;11256;50.830;12.834;2024-01-30T12:56:12;98786.31;;;13.71;52.22
22181;BME280;11256;50.830;12.834;2024-01-30T13:01:13;98783.31;;;13.73;52.39
22181;BME280;11256;50.830;12.834;2024-01-30T13:06:13;98781.13;;;13.75;52.14
22181;BME280;11256;50.830;12.834;2024-01-30T13:11:14;98776.19;;;13.77;52.32
22181;BME280;11256;50.830;12.834;2024-01-30T13:16:14;98770.75;;;13.77;52.30
22181;BME280;11256;50.830;12.834;2024-01-30T13:21:14;98771.59;;;13.77;51.51
22181;BME280;11256;50.830;12.834;2024-01-30T13:26:15;98759.31;;;13.75;52.44
22181;BME280;11256;50.830;12.834;2024-01-30T13:31:16;98753.34;;;13.73;52.33
22181;BME280;11256;50.830;12.834;2024-01-30T13:36:16;98761.78;;;13.76;52.33
22181;BME280;11256;50.830;12.834;2024-01-30T13:41:17;98758.22;;;13.76;52.38
22181;BME280;11256;50.830;12.834;2024-01-30T13:46:17;98752.50;;;13.77;52.48
22181;BME280;11256;50.830;12.834;2024-01-30T13:51:17;98745.97;;;13.78;52.41
22181;BME280;11256;50.830;12.834;2024-01-30T13:56:19;98745.44;;;13.76;52.33
22181;BME280;11256;50.830;12.834;2024-01-30T14:01:20;98746.22;;;13.77;52.40
22181;BME280;11256;50.830;12.834;2024-01-30T14:06:20;98746.22;;;13.77;51.79
22181;BME280;11256;50.830;12.834;2024-01-30T14:11:20;98744.34;;;13.72;52.21
22181;BME280;11256;50.830;12.834;2024-01-30T14:16:21;98752.25;;;13.64;52.24
22181;BME280;11256;50.830;12.834;2024-01-30T14:21:21;98753.34;;;13.58;52.41
22181;BME280;11256;50.830;12.834;2024-01-30T14:26:22;98742.97;;;13.45;52.36
22181;BME280;11256;50.830;12.834;2024-01-30T14:31:22;98735.63;;;13.40;52.31
22181;BME280;11256;50.830;12.834;2024-01-30T14:36:24;98746.28;;;13.42;52.54
22181;BME280;11256;50.830;12.834;2024-01-30T14:41:28;98747.38;;;13.41;52.34
22181;BME280;11256;50.830;12.834;2024-01-30T14:46:28;98755.53;;;13.36;52.65
22181;BME280;11256;50.830;12.834;2024-01-30T14:51:29;98757.16;;;13.32;52.97
22181;BME280;11256;50.830;12.834;2024-01-30T14:56:30;98765.84;;;13.29;52.81
22181;BME280;11256;50.830;12.834;2024-01-30T15:01:30;98756.59;;;13.20;53.11
22181;BME280;11256;50.830;12.834;2024-01-30T15:06:31;98758.22;;;13.21;53.13
22181;BME280;11256;50.830;12.834;2024-01-30T15:11:31;98756.06;;;13.13;53.39
22181;BME280;11256;50.830;12.834;2024-01-30T15:16:33;98758.22;;;13.11;53.53
22181;BME280;11256;50.830;12.834;2024-01-30T15:21:33;98739.69;;;12.98;53.08
22181;BME280;11256;50.830;12.834;2024-01-30T15:26:34;98752.22;;;12.99;52.85
22181;BME280;11256;50.830;12.834;2024-01-30T15:31:34;98736.41;;;12.91;53.10
22181;BME280;11256;50.830;12.834;2024-01-30T15:36:35;98739.88;;;12.76;53.12
22181;BME280;11256;50.830;12.834;2024-01-30T15:41:39;98746.66;;;12.64;53.37
22181;BME280;11256;50.830;12.834;2024-01-30T15:46:43;98755.88;;;12.53;53.58
22181;BME280;11256;50.830;12.834;2024-01-30T15:51:45;98761.84;;;12.50;53.52
22181;BME280;11256;50.830;12.834;2024-01-30T15:56:45;98768.63;;;12.47;53.85
22181;BME280;11256;50.830;12.834;2024-01-30T16:01:45;98765.06;;;12.37;53.90
22181;BME280;11256;50.830;12.834;2024-01-30T16:06:49;98760.66;;;12.26;53.94
22181;BME280;11256;50.830;12.834;2024-01-30T16:11:50;98754.00;;;12.02;54.02
22181;BME280;11256;50.830;12.834;2024-01-30T16:16:50;98773.03;;;12.07;54.21
22181;BME280;11256;50.830;12.834;2024-01-30T16:21:50;98759.34;;;11.92;54.31
22181;BME280;11256;50.830;12.834;2024-01-30T16:26:51;98777.00;;;11.89;54.14
22181;BME280;11256;50.830;12.834;2024-01-30T16:31:51;98782.09;;;11.81;54.65
22181;BME280;11256;50.830;12.834;2024-01-30T16:36:51;98782.84;;;11.71;54.65
22181;BME280;11256;50.830;12.834;2024-01-30T16:41:52;98776.00;;;11.64;54.93
22181;BME280;11256;50.830;12.834;2024-01-30T16:46:52;98774.84;;;11.55;55.09
22181;BME280;11256;50.830;12.834;2024-01-30T16:51:53;98761.13;;;11.40;55.32
22181;BME280;11256;50.830;12.834;2024-01-30T16:56:53;98778.56;;;11.44;55.26
22181;BME280;11256;50.830;12.834;2024-01-30T17:01:53;98789.88;;;11.36;55.54
22181;BME280;11256;50.830;12.834;2024-01-30T17:06:54;98774.03;;;11.23;55.59
22181;BME280;11256;50.830;12.834;2024-01-30T17:11:54;98784.28;;;11.21;55.75
22181;BME280;11256;50.830;12.834;2024-01-30T17:16:55;98792.97;;;11.18;56.20
22181;BME280;11256;50.830;12.834;2024-01-30T17:21:55;98797.25;;;11.14;56.28
22181;BME280;11256;50.830;12.834;2024-01-30T17:26:55;98783.34;;;11.05;56.33
22181;BME280;11256;50.830;12.834;2024-01-30T17:31:56;98791.72;;;11.04;56.49
22181;BME280;11256;50.830;12.834;2024-01-30T17:36:56;98799.25;;;10.97;56.41
22181;BME280;11256;50.830;12.834;2024-01-30T17:41:57;98799.13;;;10.87;57.02
22181;BME280;11256;50.830;12.834;2024-01-30T17:46:57;98791.25;;;10.85;57.05
22181;BME280;11256;50.830;12.834;2024-01-30T17:51:57;98800.59;;;10.73;57.40
22181;BME280;11256;50.830;12.834;2024-01-30T17:56:58;98815.88;;;10.79;57.48
22181;BME280;11256;50.830;12.834;2024-01-30T18:01:58;98826.66;;;10.74;57.45
22181;BME280;11256;50.830;12.834;2024-01-30T18:06:58;98826.00;;;10.67;57.65
22181;BME280;11256;50.830;12.834;2024-01-30T18:11:59;98825.94;;;10.62;57.61
22181;BME280;11256;50.830;12.834;2024-01-30T18:17:00;98818.34;;;10.59;57.65
22181;BME280;11256;50.830;12.834;2024-01-30T18:22:00;98816.13;;;10.56;57.77
22181;BME280;11256;50.830;12.834;2024-01-30T18:27:00;98811.66;;;10.45;57.80
22181;BME280;11256;50.830;12.834;2024-01-30T18:32:01;98830.69;;;10.50;57.80
22181;BME280;11256;50.830;12.834;2024-01-30T18:37:01;98830.63;;;10.45;57.80
22181;BME280;11256;50.830;12.834;2024-01-30T18:42:01;98837.28;;;10.37;57.96
22181;BME280;11256;50.830;12.834;2024-01-30T18:47:02;98842.38;;;10.34;57.84
22181;BME280;11256;50.830;12.834;2024-01-30T18:52:02;98842.97;;;10.36;58.25
22181;BME280;11256;50.830;12.834;2024-01-30T18:57:04;98843.72;;;10.31;58.21
22181;BME280;11256;50.830;12.834;2024-01-30T19:02:06;98837.34;;;10.21;57.91
22181;BME280;11256;50.830;12.834;2024-01-30T19:07:06;98838.34;;;10.15;58.11
22181;BME280;11256;50.830;12.834;2024-01-30T19:12:06;98849.81;;;10.22;58.33
22181;BME280;11256;50.830;12.834;2024-01-30T19:17:07;98852.44;;;10.17;58.13
22181;BME280;11256;50.830;12.834;2024-01-30T19:22:07;98848.53;;;10.08;58.27
22181;BME280;11256;50.830;12.834;2024-01-30T19:27:08;98860.75;;;10.10;58.55
22181;BME280;11256;50.830;12.834;2024-01-30T19:32:08;98854.25;;;9.95;58.67
22181;BME280;11256;50.830;12.834;2024-01-30T19:37:09;98868.44;;;10.02;58.55
22181;BME280;11256;50.830;12.834;2024-01-30T19:42:09;98880.59;;;9.99;58.62
22181;BME280;11256;50.830;12.834;2024-01-30T19:47:09;98880.16;;;9.91;58.89
22181;BME280;11256;50.830;12.834;2024-01-30T19:52:10;98885.94;;;9.94;58.85
22181;BME280;11256;50.830;12.834;2024-01-30T19:57:10;98890.19;;;9.90;58.92
22181;BME280;11256;50.830;12.834;2024-01-30T20:02:10;98906.44;;;9.90;58.92
22181;BME280;11256;50.830;12.834;2024-01-30T20:07:15;98914.47;;;9.85;59.01
22181;BME280;11256;50.830;12.834;2024-01-30T20:12:17;98895.59;;;9.74;58.82
22181;BME280;11256;50.830;12.834;2024-01-30T20:17:18;98919.06;;;9.85;59.36
22181;BME280;11256;50.830;12.834;2024-01-30T20:22:19;98920.88;;;9.79;58.90
22181;BME280;11256;50.830;12.834;2024-01-30T20:27:20;98927.34;;;9.78;59.25
22181;BME280;11256;50.830;12.834;2024-01-30T20:32:20;98931.94;;;9.78;59.52
22181;BME280;11256;50.830;12.834;2024-01-30T20:37:21;98915.94;;;9.76;59.75
22181;BME280;11256;50.830;12.834;2024-01-30T20:42:21;98938.91;;;9.74;59.43
22181;BME280;11256;50.830;12.834;2024-01-30T20:47:21;98928.56;;;9.71;59.49
22181;BME280;11256;50.830;12.834;2024-01-30T20:52:22;98937.78;;;9.70;59.90
22181;BME280;11256;50.830;12.834;2024-01-30T20:57:22;98931.53;;;9.69;59.87
22181;BME280;11256;50.830;12.834;2024-01-30T21:02:23;98936.59;;;9.66;59.75
22181;BME280;11256;50.830;12.834;2024-01-30T21:07:23;98933.31;;;9.64;60.14
22181;BME280;11256;50.830;12.834;2024-01-30T21:12:24;98947.09;;;9.62;60.04
22181;BME280;11256;50.830;12.834;2024-01-30T21:17:24;98927.41;;;9.50;60.22
22181;BME280;11256;50.830;12.834;2024-01-30T21:22:25;98959.69;;;9.57;60.00
22181;BME280;11256;50.830;12.834;2024-01-30T21:27:26;98965.34;;;9.55;59.94
22181;BME280;11256;50.830;12.834;2024-01-30T21:32:26;98963.94;;;9.53;60.47
22181;BME280;11256;50.830;12.834;2024-01-30T21:37:26;98959.03;;;9.50;60.21
22181;BME280;11256;50.830;12.834;2024-01-30T21:42:27;98954.50;;;9.39;60.41
22181;BME280;11256;50.830;12.834;2024-01-30T21:47:29;98960.81;;;9.44;60.09
22181;BME280;11256;50.830;12.834;2024-01-30T21:52:29;98977.31;;;9.43;60.14
22181;BME280;11256;50.830;12.834;2024-01-30T21:57:30;98960.97;;;9.38;60.60
22181;BME280;11256;50.830;12.834;2024-01-30T22:02:30;98955.69;;;9.31;60.53
22181;BME280;11256;50.830;12.834;2024-01-30T22:07:30;98965.56;;;9.37;60.68
22181;BME280;11256;50.830;12.834;2024-01-30T22:12:31;98951.13;;;9.32;60.83
22181;BME280;11256;50.830;12.834;2024-01-30T22:17:31;98961.94;;;9.32;60.73
22181;BME280;11256;50.830;12.834;2024-01-30T22:22:31;98962.75;;;9.32;60.69
22181;BME280;11256;50.830;12.834;2024-01-30T22:27:33;98939.91;;;9.12;60.68
22181;BME280;11256;50.830;12.834;2024-01-30T22:32:34;98963.72;;;9.26;60.51
22181;BME280;11256;50.830;12.834;2024-01-30T22:37:36;98959.59;;;9.24;60.84
22181;BME280;11256;50.830;12.834;2024-01-30T22:42:37;98974.19;;;9.23;60.79
22181;BME280;11256;50.830;12.834;2024-01-30T22:47:38;98967.16;;;9.22;60.80
22181;BME280;11256;50.830;12.834;2024-01-30T22:52:38;98969.25;;;9.20;61.10
22181;BME280;11256;50.830;12.834;2024-01-30T22:57:38;98981.13;;;9.19;61.11
22181;BME280;11256;50.830;12.834;2024-01-30T23:02:39;98971.38;;;9.18;61.01
22181;BME280;11256;50.830;12.834;2024-01-30T23:07:39;98975.63;;;9.14;61.45
22181;BME280;11256;50.830;12.834;2024-01-30T23:12:41;98980.47;;;9.12;61.41
22181;BME280;11256;50.830;12.834;2024-01-30T23:17:42;98972.34;;;9.12;61.79
22181;BME280;11256;50.830;12.834;2024-01-30T23:22:42;98956.47;;;9.04;61.59
22181;BME280;11256;50.830;12.834;2024-01-30T23:27:42;98968.00;;;9.11;62.13
22181;BME280;11256;50.830;12.834;2024-01-30T23:32:43;98976.59;;;9.08;61.57
22181;BME280;11256;50.830;12.834;2024-01-30T23:37:43;98952.41;;;8.90;61.84
22181;BME280;11256;50.830;12.834;2024-01-30T23:42:43;98984.13;;;9.06;62.33
22181;BME280;11256;50.830;12.834;2024-01-30T23:47:44;98986.59;;;9.07;62.30
22181;BME280;11256;50.830;12.834;2024-01-30T23:52:44;98975.22;;;8.94;62.03
22181;BME280;11256;50.830;12.834;2024-01-30T23:57:46;98975.06;;;9.00;62.29
